Time;durP1;ratioP1;P1;durP2;ratioP2;P2;SDS_P1;SDS_P2;PMS_P1;PMS_P2;Temp;Humidity;BMP_temperature;BMP_pressure;BME280_temperature;BME280_humidity;BME280_pressure;Samples;Min_cycle;Max_cycle;Signal;HPM_P1;HPM_P2
2022/08/11 00:01:10;;;;;;;2.22;2.05;;;;;;;17.65;55.94;101573.06;4992854;28;20062;-27
2022/08/11 00:03:41;;;;;;;2.72;2.53;;;;;;;17.66;55.94;101566.81;5003004;28;20106;-28
2022/08/11 00:06:07;;;;;;;;;;;;;;;17.61;55.64;101558.91;4991370;28;20088;-28
2022/08/11 00:08:33;;;;;;;2.47;2.28;;;;;;;17.57;56.16;101570.56;4996072;28;19918;-28
2022/08/11 00:11:05;;;;;;;2.25;2.05;;;;;;;17.53;56.58;101572.44;4973308;28;20158;-28
2022/08/11 00:13:36;;;;;;;2.30;2.20;;;;;;;17.53;56.20;101561.78;4990724;28;20026;-29
2022/08/11 00:16:02;;;;;;;2.15;2.05;;;;;;;17.48;56.34;101571.69;5006037;28;20038;-29
2022/08/11 00:18:30;;;;;;;2.10;2.00;;;;;;;17.47;56.50;101579.72;4990797;28;20312;-28
2022/08/11 00:20:58;;;;;;;2.53;2.30;;;;;;;17.48;56.10;101574.34;4979735;28;20037;-29
2022/08/11 00:23:24;;;;;;;2.97;2.10;;;;;;;17.47;55.79;101580.56;4991230;28;20416;-28
2022/08/11 00:25:51;;;;;;;2.72;2.35;;;;;;;17.47;56.28;101575.25;4991596;28;20038;-28
2022/08/11 00:28:45;;;;;;;2.40;2.20;;;;;;;17.43;56.35;101570.91;4988529;28;20034;-27
2022/08/11 00:31:22;;;;;;;3.08;2.60;;;;;;;17.40;56.33;101573.63;4974100;28;20539;-28
2022/08/11 00:33:48;;;;;;;2.35;2.10;;;;;;;17.35;56.76;101586.19;4987359;28;20023;-28
2022/08/11 00:36:18;;;;;;;3.33;2.45;;;;;;;17.31;56.62;101574.75;4988102;28;20106;-28
2022/08/11 00:38:44;;;;;;;2.63;2.43;;;;;;;17.28;56.63;101570.34;5001105;28;20030;-29
2022/08/11 00:41:33;;;;;;;2.42;2.22;;;;;;;17.29;56.54;101569.44;5003191;28;20073;-29
2022/08/11 00:44:01;;;;;;;2.08;1.98;;;;;;;17.27;56.37;101579.25;4989666;28;20061;-28
2022/08/11 00:47:00;;;;;;;2.85;2.65;;;;;;;17.28;56.12;101581.00;4990464;28;20040;-28
2022/08/11 00:49:54;;;;;;;2.25;2.13;;;;;;;17.23;56.08;101574.91;4992862;28;20053;-28
2022/08/11 00:52:33;;;;;;;2.30;2.10;;;;;;;17.15;56.48;101569.78;4977426;28;20041;-28
2022/08/11 00:55:18;;;;;;;2.67;2.45;;;;;;;17.14;56.15;101569.81;4980493;28;20048;-28
2022/08/11 00:58:11;;;;;;;2.75;2.30;;;;;;;17.13;55.68;101570.69;4987139;28;20526;-28
2022/08/11 01:00:55;;;;;;;2.50;2.08;;;;;;;17.10;54.97;101570.78;4982486;28;20489;-28
2022/08/11 01:03:32;;;;;;;1.95;1.85;;;;;;;17.05;55.20;101570.84;4997124;28;20033;-28
2022/08/11 01:06:19;;;;;;;3.15;2.42;;;;;;;17.01;55.25;101567.34;4989293;28;20488;-28
2022/08/11 01:08:48;;;;;;;2.47;2.15;;;;;;;16.95;55.45;101567.50;4987032;28;20030;-28
2022/08/11 01:11:52;;;;;;;2.53;2.33;;;;;;;16.96;54.97;101566.59;4998002;28;20034;-29
2022/08/11 01:14:39;;;;;;;3.30;2.40;;;;;;;16.94;55.24;101565.72;5002567;28;20033;-28
2022/08/11 01:17:35;;;;;;;6.35;2.45;;;;;;;16.91;55.03;101568.47;4971933;28;21298;-28
2022/08/11 01:20:35;;;;;;;2.50;2.30;;;;;;;16.85;55.77;101565.94;4990258;28;20045;-28
2022/08/11 01:23:30;;;;;;;2.93;2.73;;;;;;;16.84;55.75;101574.84;4987742;28;20030;-28
2022/08/11 01:26:14;;;;;;;2.08;1.98;;;;;;;16.82;55.63;101585.53;5013536;28;20072;-28
2022/08/11 01:29:12;;;;;;;3.13;2.40;;;;;;;16.83;55.51;101575.72;4988287;28;20037;-28
2022/08/11 01:32:02;;;;;;;2.83;2.38;;;;;;;16.75;55.72;101571.47;4985346;28;20085;-28
2022/08/11 01:34:59;;;;;;;2.47;2.33;;;;;;;16.74;56.19;101579.50;4992772;28;20030;-28
2022/08/11 01:38:03;;;;;;;2.55;2.35;;;;;;;16.71;56.03;101576.88;5002501;28;20431;-28
2022/08/11 01:40:31;;;;;;;2.85;2.28;;;;;;;16.66;56.18;101577.84;4998637;28;20495;-29
2022/08/11 01:46:11;;;;;;;4.80;2.33;;;;;;;16.61;56.26;101584.19;4988127;28;20084;-28
2022/08/11 01:48:53;;;;;;;2.55;2.35;;;;;;;16.62;56.38;101592.16;4984322;28;20422;-28
2022/08/11 01:51:30;;;;;;;4.10;2.33;;;;;;;16.58;56.28;101594.88;4975645;28;20022;-28
2022/08/11 01:54:03;;;;;;;2.63;2.42;;;;;;;16.53;56.30;101585.22;4991831;28;20037;-28
2022/08/11 01:56:39;;;;;;;3.03;2.72;;;;;;;16.54;56.49;101584.28;5004755;28;20080;-29
2022/08/11 01:59:22;;;;;;;2.33;2.20;;;;;;;16.49;56.56;101579.97;4993014;28;20054;-28
2022/08/11 02:02:09;;;;;;;2.97;2.20;;;;;;;16.46;56.49;101580.91;4979102;28;20068;-28
2022/08/11 02:05:02;;;;;;;2.97;2.05;;;;;;;16.41;56.16;101572.16;4993062;28;20033;-27
2022/08/11 02:07:35;;;;;;;4.32;2.38;;;;;;;16.41;56.15;101585.47;5002830;28;20030;-28
2022/08/11 02:13:33;;;;;;;2.40;2.20;;;;;;;16.36;55.71;101576.66;4992910;28;20045;-28
2022/08/11 02:16:21;;;;;;;3.20;2.28;;;;;;;16.35;55.58;101582.91;4981642;28;20074;-28
2022/08/11 02:24:52;;;;;;;2.72;2.22;;;;;;;16.24;55.69;101581.31;4996847;28;20076;-28
2022/08/11 02:27:23;;;;;;;2.45;2.25;;;;;;;16.20;55.28;101590.25;4977465;28;20018;-28
2022/08/11 02:30:03;;;;;;;4.13;2.88;;;;;;;16.18;55.08;101592.09;4996941;28;20030;-29
2022/08/11 02:35:28;;;;;;;3.05;2.75;;;;;;;16.08;55.21;101596.69;4995142;28;20040;-28
2022/08/11 02:38:15;;;;;;;2.30;2.10;;;;;;;16.09;55.27;101594.88;4992812;28;20030;-29
2022/08/11 02:40:52;;;;;;;3.58;2.50;;;;;;;16.05;55.41;101579.88;4996860;28;20030;-29
2022/08/11 02:43:39;;;;;;;4.03;2.55;;;;;;;16.03;55.74;101582.56;4977066;28;20122;-28
2022/08/11 02:46:24;;;;;;;3.03;2.60;;;;;;;15.94;55.96;101583.56;4984690;28;20032;-29
2022/08/11 02:52:06;;;;;;;3.08;2.33;;;;;;;15.94;55.67;101582.72;5003866;28;20037;-28
2022/08/11 02:54:38;;;;;;;2.65;2.45;;;;;;;15.91;55.62;101583.66;4968859;28;20073;-28
2022/08/11 02:57:15;;;;;;;3.05;2.65;;;;;;;15.91;55.85;101578.31;4987602;28;20030;-28
2022/08/11 02:59:54;;;;;;;2.92;2.72;;;;;;;15.87;55.94;101576.63;4987949;28;20034;-28
2022/08/11 03:02:31;;;;;;;2.72;2.53;;;;;;;15.91;55.82;101586.31;5004998;28;20026;-28
2022/08/11 03:04:57;;;;;;;2.83;2.55;;;;;;;15.85;55.90;101578.41;4981086;28;20030;-28
2022/08/11 03:07:24;;;;;;;3.23;2.93;;;;;;;15.83;55.92;101589.09;5001103;28;20045;-29
2022/08/11 03:09:54;;;;;;;2.53;2.33;;;;;;;15.84;55.94;101576.66;4996199;28;20316;-29
2022/08/11 03:18:56;;;;;;;2.60;2.40;;;;;;;15.75;56.38;101583.91;4997837;28;20061;-28
2022/08/11 03:21:27;;;;;;;3.67;2.25;;;;;;;15.78;56.32;101588.28;4993047;28;20034;-28
2022/08/11 03:24:07;;;;;;;2.63;2.38;;;;;;;15.71;55.98;101582.16;4992208;28;20029;-29
2022/08/11 03:27:09;;;;;;;2.90;2.70;;;;;;;15.61;56.12;101577.91;4971692;28;20329;-28
2022/08/11 03:29:46;;;;;;;3.38;2.78;;;;;;;15.50;56.39;101584.28;4984562;28;20555;-28
2022/08/11 03:32:31;;;;;;;3.03;2.70;;;;;;;15.50;56.29;101586.03;5007270;28;20041;-28
2022/08/11 03:35:00;;;;;;;2.90;2.70;;;;;;;15.45;56.40;101591.44;4991846;28;20040;-28
2022/08/11 03:37:53;;;;;;;2.53;2.33;;;;;;;15.39;56.67;101588.88;4976040;28;20026;-29
2022/08/11 03:43:21;;;;;;;3.33;2.60;;;;;;;15.35;56.66;101587.16;4992831;28;20093;-28
2022/08/11 03:46:02;;;;;;;3.10;2.90;;;;;;;15.32;56.59;101587.19;4971529;28;20088;-28
2022/08/11 03:48:29;;;;;;;;;;;;;;;15.30;56.42;101591.69;4987938;28;20026;-29
2022/08/11 03:51:07;;;;;;;3.65;2.72;;;;;;;15.27;56.44;101593.47;4980734;28;20291;-29
2022/08/11 03:53:55;;;;;;;5.03;2.90;;;;;;;15.24;56.50;101588.19;4997688;28;20030;-29
2022/08/11 03:56:59;;;;;;;4.57;3.00;;;;;;;15.22;56.46;101595.31;4971009;28;20058;-28
2022/08/11 03:59:40;;;;;;;5.00;3.25;;;;;;;15.20;56.49;101596.25;4975164;28;20499;-28
2022/08/11 04:02:08;;;;;;;7.13;3.25;;;;;;;15.19;56.60;101595.34;4994117;28;20033;-29
2022/08/11 04:05:01;;;;;;;3.50;3.20;;;;;;;15.16;56.79;101592.72;4993613;28;20113;-28
2022/08/11 04:08:04;;;;;;;3.28;2.97;;;;;;;15.15;56.89;101596.31;4992511;28;20022;-28
2022/08/11 04:10:42;;;;;;;2.90;2.70;;;;;;;15.14;56.97;101594.56;4973403;28;20451;-28
2022/08/11 04:13:35;;;;;;;3.83;3.08;;;;;;;15.11;56.96;101594.59;4999112;28;20066;-28
2022/08/11 04:16:14;;;;;;;6.38;2.80;;;;;;;15.08;57.00;101590.19;4989050;28;20077;-28
2022/08/11 04:19:17;;;;;;;4.28;3.13;;;;;;;15.06;57.10;101597.28;4969677;28;20037;-29
2022/08/11 04:22:16;;;;;;;2.92;2.72;;;;;;;15.05;57.46;101600.84;5000092;28;20369;-29
2022/08/11 04:24:58;;;;;;;5.70;2.90;;;;;;;15.05;57.11;101586.69;4993701;28;20066;-29
2022/08/11 04:27:46;;;;;;;5.90;3.03;;;;;;;15.05;56.99;101594.66;5013331;28;20030;-29
2022/08/11 04:30:27;;;;;;;4.10;3.20;;;;;;;15.03;57.32;101594.69;4992208;28;20026;-28
2022/08/11 04:33:09;;;;;;;4.05;3.33;;;;;;;15.02;57.34;101606.22;4980833;28;20084;-28
2022/08/11 04:35:50;;;;;;;3.40;3.10;;;;;;;14.99;57.64;101604.47;4983740;28;20481;-28
2022/08/11 04:38:37;;;;;;;4.07;2.75;;;;;;;15.03;57.29;101599.13;4980630;28;20100;-28
2022/08/11 04:43:19;;;;;;;3.03;2.72;;;;;;;15.01;57.77;101602.66;4991910;28;20109;-28
2022/08/11 04:45:00;;;;;;;2.90;2.70;;;;;;;15.03;57.66;101607.09;4990855;28;20401;-29
2022/08/11 05:02:30;;;;;;;3.72;3.20;;;;;;;15.06;58.02;101609.69;4985318;28;20042;-28
2022/08/11 05:05:30;;;;;;;3.88;3.10;;;;;;;15.07;57.46;101606.16;4992166;28;20035;-28
2022/08/11 05:08:33;;;;;;;3.67;3.37;;;;;;;15.11;57.45;101607.88;4992634;28;20022;-28
2022/08/11 05:11:25;;;;;;;3.90;3.53;;;;;;;15.13;57.47;101611.38;4993089;28;20262;-29
2022/08/11 05:37:05;;;;;;;2.70;2.50;;;;;;;15.42;56.44;101604.78;5005028;28;20084;-28
2022/08/11 05:56:21;;;;;;;3.15;2.90;;;;;;;15.96;56.17;101616.38;4992010;28;20522;-28
2022/08/11 05:58:51;;;;;;;3.08;2.88;;;;;;;16.06;55.90;101613.56;5005850;28;20026;-28
2022/08/11 06:01:25;;;;;;;4.93;3.13;;;;;;;16.16;55.54;101615.16;4990432;28;20044;-28
2022/08/11 06:06:40;;;;;;;3.75;3.20;;;;;;;16.26;56.05;101614.09;4980362;28;20096;-28
2022/08/11 06:09:07;;;;;;;4.22;3.40;;;;;;;16.34;55.76;101613.09;5010349;28;20034;-29
2022/08/11 06:11:40;;;;;;;3.28;2.92;;;;;;;16.39;56.01;101611.22;5010657;28;20022;-29
2022/08/11 06:14:08;;;;;;;3.78;3.20;;;;;;;16.48;56.16;101608.41;4994617;28;20408;-28
2022/08/11 06:16:34;;;;;;;4.10;3.65;;;;;;;16.55;56.31;101617.13;5010489;28;20023;-28
2022/08/11 06:18:59;;;;;;;3.40;3.10;;;;;;;16.62;56.46;101615.22;4995750;28;20022;-28
2022/08/11 06:21:25;;;;;;;4.65;3.20;;;;;;;16.68;55.92;101615.97;4994755;28;20026;-28
2022/08/11 06:23:51;;;;;;;5.20;3.35;;;;;;;16.74;55.97;101609.66;4995240;28;20066;-28
2022/08/11 06:26:17;;;;;;;3.42;3.13;;;;;;;16.80;56.32;101617.53;4995638;28;20081;-28
2022/08/11 06:28:44;;;;;;;4.57;3.15;;;;;;;16.88;56.16;101609.34;4978021;28;20048;-28
2022/08/11 06:31:11;;;;;;;6.38;3.65;;;;;;;17.01;55.83;101609.97;4978175;28;20026;-28
2022/08/11 06:33:47;;;;;;;3.80;3.50;;;;;;;17.08;56.04;101621.44;4994924;28;20046;-28
2022/08/11 06:36:43;;;;;;;4.32;3.45;;;;;;;17.18;55.62;101616.78;4977757;28;20038;-28
2022/08/11 06:39:26;;;;;;;4.78;3.50;;;;;;;17.28;55.71;101626.31;5010779;28;20161;-28
2022/08/11 06:42:02;;;;;;;4.47;3.70;;;;;;;17.38;55.55;101628.81;4977890;28;20026;-29
2022/08/11 06:44:31;;;;;;;3.53;3.10;;;;;;;17.46;55.57;101626.81;4974549;28;20027;-28
2022/08/11 06:47:04;;;;;;;3.55;3.25;;;;;;;17.55;55.13;101623.94;4958897;28;20035;-28
2022/08/11 06:52:28;;;;;;;4.07;3.33;;;;;;;17.74;55.10;101630.66;4975771;28;20062;-28
2022/08/11 06:55:04;;;;;;;4.70;3.78;;;;;;;17.86;55.18;101634.78;4990447;28;20049;-28
2022/08/11 07:00:28;;;;;;;4.70;4.20;;;;;;;18.14;55.26;101631.47;5007964;28;20064;-28
2022/08/11 07:03:02;;;;;;;4.23;3.83;;;;;;;18.23;55.28;101622.38;4979108;28;20028;-28
2022/08/11 07:05:36;;;;;;;4.20;3.80;;;;;;;18.37;54.76;101627.34;4994931;28;20073;-28
2022/08/11 07:17:16;;;;;;;6.40;4.97;;;;;;;18.91;54.75;101616.94;4992280;28;20511;-28
2022/08/11 07:31:00;;;;;;;8.48;5.55;;;;;;;19.67;53.66;101613.78;4979799;28;20037;-28
2022/08/11 07:33:31;;;;;;;11.63;6.43;;;;;;;19.80;53.88;101622.25;4976352;28;20610;-28
2022/08/11 07:35:59;;;;;;;12.60;6.70;;;;;;;19.88;53.66;101613.06;5009562;28;20092;-28
2022/08/11 07:38:42;;;;;;;12.73;6.82;;;;;;;20.04;53.27;101615.25;4976900;28;20507;-29
2022/08/11 07:41:11;;;;;;;9.13;5.70;;;;;;;20.20;52.88;101606.66;4978664;28;20480;-28
2022/08/11 07:43:38;;;;;;;13.60;6.75;;;;;;;20.35;52.67;101616.88;4976535;28;20022;-28
2022/08/11 07:54:32;;;;;;;12.07;6.78;;;;;;;21.02;52.17;101614.47;4979168;28;20065;-28
2022/08/11 07:56:58;;;;;;;11.15;6.95;;;;;;;21.19;51.89;101622.78;4992375;28;20570;-28
2022/08/11 08:18:36;;;;;;;7.50;6.35;;;;;;;22.53;50.38;101611.91;4993595;28;20037;-28
2022/08/11 08:21:10;;;;;;;7.18;6.20;;;;;;;22.68;50.47;101615.75;4975936;28;20022;-28
2022/08/11 08:23:37;;;;;;;7.80;6.38;;;;;;;22.80;49.96;101608.94;4976938;28;20037;-28
2022/08/11 08:26:57;;;;;;;8.05;6.13;;;;;;;22.94;49.47;101617.25;4992953;28;20077;-28
2022/08/11 08:28:51;;;;;;;7.13;6.45;;;;;;;23.12;49.18;101609.25;4959382;28;20039;-28
2022/08/11 08:31:17;;;;;;;12.25;6.72;;;;;;;23.29;49.67;101604.88;4973902;28;20046;-28
2022/08/11 08:33:42;;;;;;;13.45;6.22;;;;;;;23.48;49.72;101602.22;4973737;28;20058;-28
2022/08/11 08:36:11;;;;;;;9.02;6.95;;;;;;;23.62;49.22;101603.31;4956571;28;20388;-28
2022/08/11 08:38:47;;;;;;;9.45;6.43;;;;;;;23.80;49.68;101604.22;4973486;28;20106;-29
2022/08/11 08:41:14;;;;;;;8.30;5.90;;;;;;;23.92;48.81;101603.63;4973936;28;20035;-28
2022/08/11 08:43:39;;;;;;;7.22;5.72;;;;;;;24.07;49.02;101591.16;4965112;28;20037;-28
2022/08/11 08:46:08;;;;;;;8.77;6.70;;;;;;;24.23;48.53;101595.78;4992952;28;20122;-29
2022/08/11 08:48:33;;;;;;;15.40;6.30;;;;;;;24.37;48.04;101589.66;4993163;28;20061;-29
2022/08/11 08:53:54;;;;;;;6.60;5.95;;;;;;;24.72;48.27;101589.59;4973459;28;20030;-28
2022/08/11 08:56:25;;;;;;;7.80;5.65;;;;;;;24.76;46.58;101592.97;4973353;28;20031;-29
2022/08/11 08:58:50;;;;;;;10.13;6.00;;;;;;;24.94;48.45;101587.56;4972576;28;20031;-28
2022/08/11 09:01:20;;;;;;;10.38;6.60;;;;;;;25.15;47.35;101590.88;5007441;28;20019;-29
2022/08/11 09:03:45;;;;;;;8.38;5.85;;;;;;;25.26;46.49;101590.25;4992236;28;20030;-29
2022/08/11 09:06:14;;;;;;;7.57;5.45;;;;;;;25.40;46.96;101586.75;4975563;28;20141;-29
2022/08/11 09:08:40;;;;;;;8.98;6.22;;;;;;;25.56;46.85;101580.47;4992645;28;20034;-28
2022/08/11 09:13:51;;;;;;;7.57;5.88;;;;;;;25.88;47.11;101572.34;4992584;28;20076;-28
2022/08/11 09:16:17;;;;;;;6.80;5.18;;;;;;;25.97;45.62;101574.47;4974326;28;20037;-28
2022/08/11 09:18:45;;;;;;;8.75;5.43;;;;;;;26.19;46.37;101573.16;4992529;28;20117;-28
2022/08/11 09:21:14;;;;;;;8.15;5.38;;;;;;;26.37;46.44;101570.28;4992388;28;20030;-29
2022/08/11 09:29:10;;;;;;;9.05;5.32;;;;;;;26.71;46.01;101572.72;5005625;28;20057;-28
2022/08/11 09:31:35;;;;;;;8.85;5.10;;;;;;;26.88;45.10;101575.19;4992407;28;20109;-28
2022/08/11 09:34:01;;;;;;;4.57;4.18;;;;;;;26.93;43.01;101571.31;4992011;28;20116;-29
2022/08/11 09:41:55;;;;;;;7.82;4.88;;;;;;;27.42;45.05;101556.44;4977430;28;20072;-29
2022/08/11 09:47:13;;;;;;;9.63;4.72;;;;;;;27.64;42.15;101563.16;4992398;28;20137;-29
2022/08/11 09:49:41;;;;;;;5.50;4.80;;;;;;;27.73;42.64;101554.38;4992224;28;20072;-29
2022/08/11 09:52:08;;;;;;;6.78;4.72;;;;;;;27.84;42.96;101561.75;5007376;28;20031;-29
2022/08/11 09:54:34;;;;;;;6.05;4.80;;;;;;;27.89;41.25;101553.31;5006851;28;20018;-28
2022/08/11 09:59:43;;;;;;;9.60;6.25;;;;;;;28.15;42.04;101547.94;5005000;28;20072;-29
2022/08/11 10:02:09;;;;;;;10.30;4.75;;;;;;;28.28;41.33;101550.69;4991593;28;20391;-28
2022/08/11 10:04:39;;;;;;;8.10;5.38;;;;;;;28.39;41.65;101541.75;4974311;28;20569;-29
2022/08/11 10:07:07;;;;;;;;;;;;;;;28.49;41.63;101534.72;4992666;28;20026;-29
2022/08/11 10:10:00;;;;;;;12.18;5.60;;;;;;;28.66;41.74;101536.19;4992234;28;20000;-28
2022/08/11 10:12:31;;;;;;;11.23;6.28;;;;;;;28.74;40.56;101530.19;4971885;28;20034;-29
2022/08/11 10:20:34;;;;;;;13.00;6.43;;;;;;;29.07;40.23;101519.69;4992003;28;20415;-29
2022/08/11 10:28:30;;;;;;;9.18;5.35;;;;;;;29.35;39.45;101516.72;4972475;28;20037;-29
2022/08/11 10:33:59;;;;;;;9.20;4.68;;;;;;;29.66;38.56;101514.41;4977049;28;20128;-29
2022/08/11 10:36:26;;;;;;;8.75;4.97;;;;;;;29.64;38.51;101514.50;4976823;28;20027;-29
2022/08/11 10:38:51;;;;;;;10.00;4.97;;;;;;;29.78;39.39;101513.44;4991419;28;20496;-29
2022/08/11 10:44:04;;;;;;;9.65;5.97;;;;;;;29.93;37.39;101502.34;4991293;28;20045;-29
2022/08/11 10:49:13;;;;;;;6.95;4.70;;;;;;;30.12;37.65;101499.03;4991732;28;20062;-29
2022/08/11 10:59:53;;;;;;;14.23;6.72;;;;;;;30.41;37.29;101495.84;4995125;28;20080;-29
2022/08/11 11:02:19;;;;;;;11.40;5.05;;;;;;;30.51;37.67;101489.66;4978073;28;20464;-28
2022/08/11 11:05:02;;;;;;;20.73;7.57;;;;;;;30.54;36.99;101490.25;4994666;28;20026;-29
2022/08/11 11:07:37;;;;;;;20.02;7.30;;;;;;;30.54;36.62;101481.25;4977259;28;20049;-29
2022/08/11 11:10:06;;;;;;;16.02;7.10;;;;;;;30.57;36.36;101479.13;4977274;28;20538;-28
2022/08/11 11:18:34;;;;;;;15.82;7.32;;;;;;;30.80;35.63;101476.38;4974035;28;20100;-29
2022/08/11 11:21:05;;;;;;;19.30;7.05;;;;;;;30.91;35.78;101463.75;4975110;28;20019;-28
2022/08/11 11:23:48;;;;;;;20.17;7.30;;;;;;;31.04;35.18;101469.88;4957358;28;20031;-29
2022/08/11 11:26:31;;;;;;;14.23;6.20;;;;;;;31.14;35.37;101472.66;4977197;28;20065;-29
2022/08/11 11:29:35;;;;;;;12.85;6.15;;;;;;;31.22;35.02;101472.03;4994889;28;20030;-29
2022/08/11 11:32:19;;;;;;;16.70;6.00;;;;;;;31.33;35.24;101469.28;4994283;28;20065;-28
2022/08/11 11:34:47;;;;;;;14.43;6.82;;;;;;;31.40;34.85;101455.16;4994446;28;20117;-28
2022/08/11 11:37:13;;;;;;;14.52;5.72;;;;;;;31.51;35.09;101465.09;4994334;28;20022;-29
2022/08/11 11:39:39;;;;;;;13.55;6.25;;;;;;;31.61;34.79;101461.44;4976815;28;20030;-29
2022/08/11 11:42:06;;;;;;;14.00;5.80;;;;;;;31.53;34.12;101453.06;5008887;28;20472;-29
2022/08/11 11:44:32;;;;;;;11.05;5.97;;;;;;;31.63;35.26;101450.41;4960611;28;20035;-29
2022/08/11 11:46:59;;;;;;;14.18;6.53;;;;;;;31.71;34.06;101456.03;5009114;28;20022;-28
2022/08/11 11:49:27;;;;;;;14.95;6.95;;;;;;;31.68;33.31;101460.91;4994205;28;20030;-29
2022/08/11 11:51:54;;;;;;;11.05;6.47;;;;;;;31.79;33.46;101452.66;4976534;28;20062;-28
2022/08/11 11:54:22;;;;;;;10.70;5.63;;;;;;;31.91;33.17;101444.41;5008701;28;20045;-28
2022/08/11 11:56:50;;;;;;;13.23;5.70;;;;;;;31.91;33.82;101453.47;4993737;28;20030;-28
2022/08/11 12:02:00;;;;;;;14.00;6.22;;;;;;;31.91;33.92;101428.06;4978364;28;20036;-28
2022/08/11 12:04:26;;;;;;;20.85;7.68;;;;;;;31.95;33.35;101426.78;4993590;28;20162;-28
2022/08/11 12:08:08;;;;;;;20.83;7.65;;;;;;;31.99;33.99;101436.41;4993272;28;20034;-28
2022/08/11 12:09:38;;;;;;;24.52;8.77;;;;;;;32.01;33.69;101426.25;4993551;28;20526;-28
2022/08/11 12:14:48;;;;;;;20.83;8.40;;;;;;;32.17;34.45;101416.69;4978028;28;20046;-29
2022/08/11 12:17:13;;;;;;;21.40;9.32;;;;;;;32.09;34.06;101414.63;4975654;28;20440;-28
2022/08/11 12:19:38;;;;;;;22.45;7.95;;;;;;;32.17;34.29;101413.94;4976083;28;20465;-28
2022/08/11 12:27:32;;;;;;;32.88;9.77;;;;;;;32.30;34.22;101411.81;4993420;28;20038;-28
2022/08/11 12:29:59;;;;;;;27.50;9.60;;;;;;;32.37;34.42;101403.91;4992774;28;20030;-28
2022/08/11 12:32:28;;;;;;;24.83;8.98;;;;;;;32.39;33.09;101405.53;4992871;28;20030;-28
2022/08/11 12:34:56;;;;;;;24.55;9.38;;;;;;;32.48;33.50;101403.00;4993072;28;20030;-29
2022/08/11 12:37:28;;;;;;;22.00;8.13;;;;;;;32.53;32.78;101406.16;4993016;28;20022;-28
2022/08/11 12:45:27;;;;;;;22.92;9.05;;;;;;;32.63;34.12;101395.22;4972567;28;20037;-28
2022/08/11 12:53:31;;;;;;;18.98;7.65;;;;;;;32.79;33.20;101388.34;4972444;28;20499;-28
2022/08/11 12:58:48;;;;;;;26.13;8.45;;;;;;;32.74;32.95;101381.44;5005916;28;20037;-29
2022/08/11 13:06:42;;;;;;;24.40;9.60;;;;;;;33.02;33.54;101372.56;4992554;28;20084;-28
2022/08/11 13:09:08;;;;;;;34.88;11.38;;;;;;;33.07;33.73;101378.44;4992934;28;20034;-28
2022/08/11 13:14:19;;;;;;;34.58;9.15;;;;;;;33.24;34.05;101362.31;5005123;28;20065;-28
2022/08/11 13:19:29;;;;;;;38.30;12.52;;;;;;;33.49;34.01;101365.41;4992597;28;20825;-28
2022/08/11 13:21:56;;;;;;;25.40;7.82;;;;;;;33.44;31.90;101362.25;5007410;28;20029;-28
2022/08/11 13:24:22;;;;;;;17.77;6.43;;;;;;;33.45;30.73;101362.13;4974407;28;20034;-28
2022/08/11 13:26:49;;;;;;;16.73;7.35;;;;;;;33.34;30.96;101360.41;4974255;28;20447;-28
2022/08/11 13:29:16;;;;;;;24.50;8.65;;;;;;;33.39;32.10;101346.31;4991939;28;20109;-28
2022/08/11 13:31:42;;;;;;;23.45;8.48;;;;;;;33.34;31.55;101348.63;4992400;28;20030;-29
2022/08/11 13:34:08;;;;;;;34.25;10.40;;;;;;;33.40;32.26;101354.34;4958494;28;20022;-29
2022/08/11 13:36:34;;;;;;;24.30;7.80;;;;;;;33.58;30.92;101341.81;4990604;28;20036;-28
2022/08/11 13:39:01;;;;;;;18.50;6.93;;;;;;;33.63;31.50;101345.81;4992185;28;20061;-29
2022/08/11 13:41:40;;;;;;;14.32;6.55;;;;;;;33.68;31.12;101339.03;4992296;28;20026;-28
2022/08/11 13:44:07;;;;;;;18.67;7.03;;;;;;;33.73;32.35;101333.97;4964992;28;20018;-29
2022/08/11 13:46:33;;;;;;;20.48;7.25;;;;;;;33.76;31.31;101329.06;4992301;28;20480;-28
2022/08/11 13:48:58;;;;;;;27.30;9.27;;;;;;;33.83;31.50;101332.03;4992187;28;20085;-28
2022/08/11 13:51:32;;;;;;;30.05;10.00;;;;;;;33.85;32.26;101329.16;4991952;28;20026;-28
2022/08/11 13:53:59;;;;;;;33.28;10.80;;;;;;;33.92;31.56;101314.72;4990864;28;20022;-29
2022/08/11 13:56:26;;;;;;;28.83;10.13;;;;;;;33.99;32.06;101316.84;4992045;28;20497;-29
2022/08/11 13:58:51;;;;;;;28.52;10.27;;;;;;;34.08;31.59;101307.72;4971295;28;20031;-28
2022/08/11 14:01:19;;;;;;;14.65;6.57;;;;;;;34.08;31.65;101318.66;4972481;28;20543;-28
2022/08/11 14:03:46;;;;;;;18.85;6.57;;;;;;;34.22;31.06;101303.63;4971154;28;20027;-29
2022/08/11 14:06:12;;;;;;;46.33;14.00;;;;;;;34.20;31.31;101300.16;4987290;28;20030;-29
2022/08/11 14:08:38;;;;;;;45.10;13.15;;;;;;;34.19;30.77;101282.03;4972466;28;20117;-29
2022/08/11 14:13:51;;;;;;;28.25;10.60;;;;;;;34.23;30.56;101298.97;4976445;28;20129;-28
2022/08/11 14:16:40;;;;;;;29.52;9.52;;;;;;;34.28;30.61;101302.97;4974269;28;20117;-28
2022/08/11 14:19:10;;;;;;;25.55;9.27;;;;;;;34.28;30.60;101299.41;4993356;28;20445;-29
2022/08/11 14:24:21;;;;;;;16.27;6.38;;;;;;;34.21;29.47;101290.09;4979524;28;20452;-29
2022/08/11 14:26:49;;;;;;;14.80;6.22;;;;;;;34.25;29.70;101291.50;5015446;28;20442;-28
2022/08/11 14:29:16;;;;;;;29.67;9.40;;;;;;;34.22;30.84;101292.66;4979529;28;20061;-29
2022/08/11 14:31:45;;;;;;;19.10;7.55;;;;;;;34.18;30.14;101291.25;4977195;28;20030;-29
2022/08/11 14:34:13;;;;;;;53.38;13.77;;;;;;;34.09;31.31;101281.19;4976809;28;20449;-28
2022/08/11 14:36:42;;;;;;;31.40;11.40;;;;;;;33.96;31.19;101287.91;4977884;28;20026;-29
2022/08/11 14:39:16;;;;;;;31.15;10.05;;;;;;;33.92;31.37;101276.44;4977072;28;20045;-28
2022/08/11 14:47:14;;;;;;;28.27;9.88;;;;;;;33.71;32.55;101287.63;4979231;28;20033;-28
2022/08/11 14:49:41;;;;;;;17.60;7.20;;;;;;;33.68;29.53;101278.88;4980310;28;20026;-28
2022/08/11 14:52:08;;;;;;;18.52;6.95;;;;;;;33.63;30.11;101282.94;4997010;28;20486;-29
2022/08/11 14:57:19;;;;;;;12.30;6.00;;;;;;;33.58;29.96;101278.94;4992031;28;20041;-28
2022/08/11 14:59:49;;;;;;;20.45;7.57;;;;;;;33.47;29.23;101277.22;4980187;28;20198;-29
2022/08/11 15:04:59;;;;;;;30.85;9.45;;;;;;;33.23;29.40;101270.41;4979962;28;20117;-28
2022/08/11 15:07:29;;;;;;;22.45;8.57;;;;;;;33.15;30.17;101276.63;4976642;28;20029;-28
2022/08/11 15:09:56;;;;;;;28.13;9.23;;;;;;;33.10;31.02;101274.34;4967162;28;20032;-28
2022/08/11 15:12:22;;;;;;;23.52;7.40;;;;;;;33.07;29.43;101269.16;5005625;28;20294;-27
2022/08/11 15:17:33;;;;;;;22.92;7.80;;;;;;;32.94;29.78;101260.41;4984704;28;20085;-28
2022/08/11 15:25:33;;;;;;;22.02;8.20;;;;;;;32.72;30.42;101263.34;5002139;28;20041;-29
2022/08/11 15:39:08;;;;;;;15.82;7.05;;;;;;;31.37;29.07;101235.53;4987992;28;20110;-28
2022/08/11 15:47:56;;;;;;;18.35;6.10;;;;;;;31.75;30.80;101230.38;4976695;28;20050;-28
2022/08/11 15:50:28;;;;;;;18.27;7.25;;;;;;;31.68;30.71;101235.53;4994293;28;20026;-28
2022/08/11 15:52:57;;;;;;;22.08;8.55;;;;;;;31.63;31.62;101240.50;4977158;28;20026;-28
2022/08/11 15:55:23;;;;;;;24.58;8.65;;;;;;;31.57;31.81;101241.09;4993003;28;20108;-28
2022/08/11 16:06:07;;;;;;;20.70;8.23;;;;;;;31.03;28.36;101222.16;5004192;28;20162;-28
2022/08/11 16:08:34;;;;;;;20.67;6.07;;;;;;;30.58;30.17;101214.16;4993637;28;20479;-28
2022/08/11 16:10:59;;;;;;;21.42;6.75;;;;;;;30.66;30.47;101210.78;4975018;28;20546;-28
2022/08/11 16:18:45;;;;;;;21.27;7.15;;;;;;;30.14;34.07;101222.41;4984424;28;20061;-28
2022/08/11 16:21:24;;;;;;;19.10;7.80;;;;;;;30.19;38.86;101222.00;5005693;28;20037;-28
2022/08/11 16:23:51;;;;;;;15.20;7.65;;;;;;;30.11;36.95;101214.50;4975508;28;20026;-28
2022/08/11 16:26:23;;;;;;;18.20;6.60;;;;;;;30.09;39.50;101211.91;4993640;28;20038;-29
2022/08/11 16:28:54;;;;;;;16.20;6.13;;;;;;;30.03;38.19;101209.69;4961024;28;20022;-29
2022/08/11 16:31:21;;;;;;;10.35;6.10;;;;;;;29.98;39.99;101209.22;4993382;28;20030;-29
2022/08/11 16:33:46;;;;;;;9.95;6.40;;;;;;;29.93;38.66;101208.72;4975134;28;20451;-28
2022/08/11 16:38:58;;;;;;;13.60;5.53;;;;;;;29.74;39.32;101204.81;4978509;28;20450;-29
2022/08/11 16:46:58;;;;;;;6.72;4.47;;;;;;;29.54;40.35;101201.91;5005174;28;20491;-29